KNTD

Point Mugu NAS (Naval Base Ventura Co) Airport

Oxnard, California, USA
METAR KNTD 140657Z 07015KT 10SM BKN280 18/M07 A3018 RMK AO2 SLP222 T01831067 $
Observed Flight Rules
Dec-14 @ 06:57 UTC (45 minutes ago) Visual Flight Rules
Wind Visibility Clouds
70° at 15 knots 10 miles
  • Broken at 28,000' AGL
Temperatures Readings
Current 18°C / 64°F
Dewpoint -7°C / 19°F
Humidity 18%
Altimeter 30.18" Hg
Pressure 1022.2 hPa
Elevation 4
METAR KNTD 140657Z 07015KT 10SM BKN280 18/M07 A3018 RMK AO2 SLP222 T01831067 $
Observed Flight Rules
Dec-14 @ 06:57 UTC
(45 minutes ago)
VFR
Wind Visibility
70° at 15 knots 10 miles
Clouds
  • Broken at 28,000' AGL
Temperature Dewpoint
18°C / 64°F -7°C / 19°F
Humidity Altimeter Pressure
18% 30.18" Hg 1022.2 hPa